sensor_id;sensor_type;location;lat;lon;timestamp;pressure;altitude;pressure_sealevel;temperature;humidity
5350;BME280;2697;42.144;24.794;2023-06-22T00:01:03;158124.00;;;21.47;100.00
5350;BME280;2697;42.144;24.794;2023-06-22T00:03:29;158128.00;;;21.48;100.00
5350;BME280;2697;42.144;24.794;2023-06-22T00:05:54;158145.25;;;21.55;100.00
5350;BME280;2697;42.144;24.794;2023-06-22T00:08:20;158124.00;;;21.47;100.00
5350;BME280;2697;42.144;24.794;2023-06-22T00:10:46;158117.38;;;21.44;100.00
5350;BME280;2697;42.144;24.794;2023-06-22T00:13:12;158102.75;;;21.39;100.00
5350;BME280;2697;42.144;24.794;2023-06-22T00:15:39;141082.53;;;21.33;100.00
5350;BME280;2697;42.144;24.794;2023-06-22T00:18:06;117073.19;;;21.17;100.00
5350;BME280;2697;42.144;24.794;2023-06-22T00:20:32;99178.03;;;21.12;100.00
5350;BME280;2697;42.144;24.794;2023-06-22T00:22:58;92171.72;;;21.03;100.00
5350;BME280;2697;42.144;24.794;2023-06-22T00:25:24;88329.41;;;21.01;100.00
5350;BME280;2697;42.144;24.794;2023-06-22T00:27:50;82750.47;;;21.01;100.00
5350;BME280;2697;42.144;24.794;2023-06-22T00:30:16;70919.19;;;21.00;100.00
5350;BME280;2697;42.144;24.794;2023-06-22T00:32:42;68493.84;;;21.05;100.00
5350;BME280;2697;42.144;24.794;2023-06-22T00:35:08;69187.19;;;21.04;100.00
5350;BME280;2697;42.144;24.794;2023-06-22T00:37:35;63281.44;;;20.98;100.00
5350;BME280;2697;42.144;24.794;2023-06-22T00:40:01;66752.50;;;21.00;100.00
5350;BME280;2697;42.144;24.794;2023-06-22T00:42:26;67104.06;;;21.04;100.00
5350;BME280;2697;42.144;24.794;2023-06-22T00:44:52;66763.72;;;21.10;100.00
5350;BME280;2697;42.144;24.794;2023-06-22T00:47:18;66072.38;;;21.13;100.00
5350;BME280;2697;42.144;24.794;2023-06-22T00:49:44;68151.78;;;21.10;100.00
5350;BME280;2697;42.144;24.794;2023-06-22T00:52:12;63976.03;;;20.99;100.00
5350;BME280;2697;42.144;24.794;2023-06-22T00:54:42;64320.69;;;20.97;100.00
5350;BME280;2697;42.144;24.794;2023-06-22T00:57:12;58423.81;;;20.91;100.00
5350;BME280;2697;42.144;24.794;2023-06-22T00:59:37;60505.03;;;20.94;100.00
5350;BME280;2697;42.144;24.794;2023-06-22T01:02:04;61198.03;;;20.94;100.00
5350;BME280;2697;42.144;24.794;2023-06-22T01:04:38;63268.69;;;20.86;100.00
5350;BME280;2697;42.144;24.794;2023-06-22T01:09:35;60844.84;;;20.88;100.00
5350;BME280;2697;42.144;24.794;2023-06-22T01:12:06;60496.88;;;20.86;100.00
5350;BME280;2697;42.144;24.794;2023-06-22T01:14:40;60150.97;;;20.87;100.00
5350;BME280;2697;42.144;24.794;2023-06-22T01:17:08;58417.91;;;20.85;100.00
5350;BME280;2697;42.144;24.794;2023-06-22T01:19:52;57737.16;;;20.97;100.00
5350;BME280;2697;42.144;24.794;2023-06-22T01:22:29;51852.78;;;20.94;100.00
5350;BME280;2697;42.144;24.794;2023-06-22T01:27:40;56005.88;;;20.97;100.00
5350;BME280;2697;42.144;24.794;2023-06-22T01:30:13;56009.63;;;21.01;100.00
5350;BME280;2697;42.144;24.794;2023-06-22T01:32:41;54631.88;;;21.08;100.00
5350;BME280;2697;42.144;24.794;2023-06-22T01:35:08;69914.72;;;21.32;100.00
5350;BME280;2697;42.144;24.794;2023-06-22T01:37:35;80019.00;;;21.43;100.00
5350;BME280;2697;42.144;24.794;2023-06-22T01:40:02;73735.31;;;21.29;100.00
5350;BME280;2697;42.144;24.794;2023-06-22T01:42:31;74084.38;;;21.30;100.00
5350;BME280;2697;42.144;24.794;2023-06-22T01:44:58;78604.38;;;21.27;100.00
5350;BME280;2697;42.144;24.794;2023-06-22T01:47:24;75447.50;;;21.08;100.00
5350;BME280;2697;42.144;24.794;2023-06-22T01:49:50;74055.75;;;21.07;100.00
5350;BME280;2697;42.144;24.794;2023-06-22T01:52:17;84806.81;;;20.76;100.00
5350;BME280;2697;42.144;24.794;2023-06-22T01:54:43;77849.78;;;20.82;100.00
5350;BME280;2697;42.144;24.794;2023-06-22T01:57:08;81675.13;;;20.79;100.00
5350;BME280;2697;42.144;24.794;2023-06-22T01:59:42;89708.03;;;20.90;100.00
5350;BME280;2697;42.144;24.794;2023-06-22T02:02:11;129725.84;;;21.08;100.00
5350;BME280;2697;42.144;24.794;2023-06-22T02:04:52;132874.19;;;20.96;100.00
5350;BME280;2697;42.144;24.794;2023-06-22T02:07:21;119120.78;;;20.86;100.00
5350;BME280;2697;42.144;24.794;2023-06-22T02:09:50;102258.22;;;20.70;100.00
5350;BME280;2697;42.144;24.794;2023-06-22T02:12:23;96633.66;;;20.52;100.00
5350;BME280;2697;42.144;24.794;2023-06-22T02:14:50;92092.13;;;20.51;100.00
5350;BME280;2697;42.144;24.794;2023-06-22T02:17:17;88947.41;;;20.47;100.00
5350;BME280;2697;42.144;24.794;2023-06-22T02:19:43;76406.38;;;20.40;100.00
5350;BME280;2697;42.144;24.794;2023-06-22T02:22:08;67719.66;;;20.34;100.00
5350;BME280;2697;42.144;24.794;2023-06-22T02:24:34;65637.44;;;20.32;100.00
5350;BME280;2697;42.144;24.794;2023-06-22T02:27:01;67717.38;;;20.32;100.00
5350;BME280;2697;42.144;24.794;2023-06-22T02:29:27;58005.59;;;20.16;100.00
5350;BME280;2697;42.144;24.794;2023-06-22T02:31:53;60774.13;;;20.17;100.00
5350;BME280;2697;42.144;24.794;2023-06-22T02:34:19;67366.09;;;20.28;100.00
5350;BME280;2697;42.144;24.794;2023-06-22T02:36:48;68418.41;;;20.38;100.00
5350;BME280;2697;42.144;24.794;2023-06-22T02:39:22;65640.19;;;20.34;100.00
5350;BME280;2697;42.144;24.794;2023-06-22T02:41:52;58704.72;;;20.24;100.00
5350;BME280;2697;42.144;24.794;2023-06-22T02:44:18;54555.38;;;20.24;100.00
5350;BME280;2697;42.144;24.794;2023-06-22T02:46:43;48342.31;;;20.26;100.00
5350;BME280;2697;42.144;24.794;2023-06-22T02:49:09;47653.53;;;20.28;100.00
5350;BME280;2697;42.144;24.794;2023-06-22T02:51:35;47310.19;;;20.30;100.00
5350;BME280;2697;42.144;24.794;2023-06-22T02:54:00;48000.16;;;20.30;100.00
5350;BME280;2697;42.144;24.794;2023-06-22T02:56:28;47658.78;;;20.34;100.00
5350;BME280;2697;42.144;24.794;2023-06-22T02:58:53;50080.97;;;20.42;100.00
5350;BME280;2697;42.144;24.794;2023-06-22T03:01:19;50082.66;;;20.44;100.00
5350;BME280;2697;42.144;24.794;2023-06-22T03:03:49;48359.09;;;20.47;100.00
5350;BME280;2697;42.144;24.794;2023-06-22T03:06:14;54598.72;;;20.71;100.00
5350;BME280;2697;42.144;24.794;2023-06-22T03:08:40;68473.13;;;20.87;100.00
5350;BME280;2697;42.144;24.794;2023-06-22T03:11:07;80677.31;;;21.14;100.00
5350;BME280;2697;42.144;24.794;2023-06-22T03:13:33;104478.44;;;21.40;100.00
5350;BME280;2697;42.144;24.794;2023-06-22T03:15:58;135863.28;;;21.70;100.00
5350;BME280;2697;42.144;24.794;2023-06-22T03:18:23;158267.41;;;22.02;100.00
5350;BME280;2697;42.144;24.794;2023-06-22T03:20:49;158325.88;;;22.24;100.00
5350;BME280;2697;42.144;24.794;2023-06-22T03:23:14;158425.53;;;22.62;100.00
5350;BME280;2697;42.144;24.794;2023-06-22T03:25:41;158464.03;;;22.77;100.00
5350;BME280;2697;42.144;24.794;2023-06-22T03:28:06;158559.78;;;23.14;100.00
5350;BME280;2697;42.144;24.794;2023-06-22T03:30:32;158647.50;;;23.47;100.00
5350;BME280;2697;42.144;24.794;2023-06-22T03:32:57;158711.34;;;23.72;100.00
5350;BME280;2697;42.144;24.794;2023-06-22T03:35:22;158797.78;;;24.05;100.00
5350;BME280;2697;42.144;24.794;2023-06-22T03:37:48;158843.00;;;24.22;100.00
5350;BME280;2697;42.144;24.794;2023-06-22T03:40:13;158962.78;;;24.68;100.00
5350;BME280;2697;42.144;24.794;2023-06-22T03:42:39;158982.75;;;24.76;100.00
5350;BME280;2697;42.144;24.794;2023-06-22T03:45:05;159077.22;;;25.12;98.51
5350;BME280;2697;42.144;24.794;2023-06-22T03:47:30;159106.53;;;25.23;100.00
5350;BME280;2697;42.144;24.794;2023-06-22T03:49:55;159259.66;;;25.81;95.76
5350;BME280;2697;42.144;24.794;2023-06-22T03:52:21;159379.47;;;26.27;91.10
5350;BME280;2697;42.144;24.794;2023-06-22T03:54:47;159474.09;;;26.63;88.14
5350;BME280;2697;42.144;24.794;2023-06-22T03:57:13;159559.34;;;26.96;83.25
5350;BME280;2697;42.144;24.794;2023-06-22T03:59:38;159659.31;;;27.34;79.95
5350;BME280;2697;42.144;24.794;2023-06-22T04:02:04;159675.31;;;27.40;78.38
5350;BME280;2697;42.144;24.794;2023-06-22T04:04:29;159869.97;;;28.15;74.08
5350;BME280;2697;42.144;24.794;2023-06-22T04:06:54;159799.31;;;27.88;74.67
5350;BME280;2697;42.144;24.794;2023-06-22T04:09:20;159704.63;;;27.51;76.53
5350;BME280;2697;42.144;24.794;2023-06-22T04:11:46;159795.31;;;27.86;74.58
5350;BME280;2697;42.144;24.794;2023-06-22T04:14:12;159766.03;;;27.75;74.08
5350;BME280;2697;42.144;24.794;2023-06-22T04:16:37;159860.66;;;28.11;72.54
5350;BME280;2697;42.144;24.794;2023-06-22T04:19:03;159918.03;;;28.33;71.81
5350;BME280;2697;42.144;24.794;2023-06-22T04:21:28;160070.09;;;28.91;71.00
5350;BME280;2697;42.144;24.794;2023-06-22T04:23:54;160254.28;;;29.61;66.46
5350;BME280;2697;42.144;24.794;2023-06-22T04:26:19;160413.16;;;30.22;62.58
5350;BME280;2697;42.144;24.794;2023-06-22T04:28:46;160489.25;;;30.51;59.32
5350;BME280;2697;42.144;24.794;2023-06-22T04:31:16;160262.28;;;29.64;64.07
5350;BME280;2697;42.144;24.794;2023-06-22T04:33:42;160483.91;;;30.49;60.15
5350;BME280;2697;42.144;24.794;2023-06-22T04:36:07;160524.00;;;30.64;58.67
5350;BME280;2697;42.144;24.794;2023-06-22T04:38:33;160584.09;;;30.87;57.69
5350;BME280;2697;42.144;24.794;2023-06-22T04:40:58;160286.31;;;29.73;61.04
5350;BME280;2697;42.144;24.794;2023-06-22T04:43:26;160272.94;;;29.68;62.14
5350;BME280;2697;42.144;24.794;2023-06-22T04:45:55;160561.41;;;30.78;57.88
5350;BME280;2697;42.144;24.794;2023-06-22T04:48:21;160477.25;;;30.46;58.74
5350;BME280;2697;42.144;24.794;2023-06-22T04:50:46;160333.03;;;29.91;59.73
5350;BME280;2697;42.144;24.794;2023-06-22T04:53:11;160256.97;;;29.62;61.26
5350;BME280;2697;42.144;24.794;2023-06-22T04:55:38;160449.22;;;30.35;58.41
5350;BME280;2697;42.144;24.794;2023-06-22T04:58:07;160212.88;;;29.45;61.38
5350;BME280;2697;42.144;24.794;2023-06-22T05:00:32;160222.25;;;29.49;60.76
5350;BME280;2697;42.144;24.794;2023-06-22T05:03:01;160437.19;;;30.31;58.94
5350;BME280;2697;42.144;24.794;2023-06-22T05:05:28;160470.59;;;30.44;58.62
5350;BME280;2697;42.144;24.794;2023-06-22T05:07:56;160653.56;;;31.13;56.78
5350;BME280;2697;42.144;24.794;2023-06-22T05:10:25;160657.56;;;31.15;56.99
5350;BME280;2697;42.144;24.794;2023-06-22T05:12:50;160871.44;;;31.96;53.11
5350;BME280;2697;42.144;24.794;2023-06-22T05:15:15;160708.38;;;31.34;53.76
5350;BME280;2697;42.144;24.794;2023-06-22T05:17:41;160634.84;;;31.06;56.10
5350;BME280;2697;42.144;24.794;2023-06-22T05:20:13;160954.28;;;32.28;52.00
5350;BME280;2697;42.144;24.794;2023-06-22T05:22:39;160896.81;;;32.06;53.21
5350;BME280;2697;42.144;24.794;2023-06-22T05:25:07;160974.38;;;32.36;51.76
5350;BME280;2697;42.144;24.794;2023-06-22T05:27:33;160737.75;;;31.45;53.87
5350;BME280;2697;42.144;24.794;2023-06-22T05:29:58;160910.22;;;32.11;53.21
5350;BME280;2697;42.144;24.794;2023-06-22T05:32:24;161187.00;;;33.16;48.69
5350;BME280;2697;42.144;24.794;2023-06-22T05:34:49;161149.56;;;33.02;49.48
5350;BME280;2697;42.144;24.794;2023-06-22T05:37:14;161142.88;;;33.00;49.06
5350;BME280;2697;42.144;24.794;2023-06-22T05:39:40;161133.53;;;32.96;49.26
5350;BME280;2697;42.144;24.794;2023-06-22T05:42:06;161035.88;;;32.59;50.74
5350;BME280;2697;42.144;24.794;2023-06-22T05:44:31;160521.31;;;30.63;56.63
5350;BME280;2697;42.144;24.794;2023-06-22T05:46:58;160940.94;;;32.23;52.62
5350;BME280;2697;42.144;24.794;2023-06-22T05:49:23;160943.59;;;32.24;52.76
5350;BME280;2697;42.144;24.794;2023-06-22T05:51:54;161366.28;;;33.85;49.04
5350;BME280;2697;42.144;24.794;2023-06-22T05:54:20;161572.44;;;34.63;45.98
5350;BME280;2697;42.144;24.794;2023-06-22T05:56:45;161621.97;;;34.82;44.28
5350;BME280;2697;42.144;24.794;2023-06-22T05:59:10;161555.03;;;34.56;44.93
5350;BME280;2697;42.144;24.794;2023-06-22T06:01:36;161481.41;;;34.28;44.83
5350;BME280;2697;42.144;24.794;2023-06-22T06:04:04;161331.50;;;33.71;45.87
5350;BME280;2697;42.144;24.794;2023-06-22T06:06:29;161542.97;;;34.52;43.14
5350;BME280;2697;42.144;24.794;2023-06-22T06:08:55;161612.56;;;34.78;42.70
5350;BME280;2697;42.144;24.794;2023-06-22T06:11:21;161810.78;;;35.54;41.92
5350;BME280;2697;42.144;24.794;2023-06-22T06:13:47;161901.91;;;35.88;41.55
5350;BME280;2697;42.144;24.794;2023-06-22T06:16:12;162084.09;;;36.58;38.98
5350;BME280;2697;42.144;24.794;2023-06-22T06:18:38;161911.28;;;35.92;38.63
5350;BME280;2697;42.144;24.794;2023-06-22T06:21:03;161731.75;;;35.24;40.72
5350;BME280;2697;42.144;24.794;2023-06-22T06:23:29;161951.47;;;36.07;39.50
5350;BME280;2697;42.144;24.794;2023-06-22T06:25:54;161930.03;;;35.99;38.93
5350;BME280;2697;42.144;24.794;2023-06-22T06:28:19;161963.53;;;36.12;38.46
5350;BME280;2697;42.144;24.794;2023-06-22T06:30:45;161971.56;;;36.15;39.40
5350;BME280;2697;42.144;24.794;2023-06-22T06:33:12;162110.94;;;36.68;37.60
5350;BME280;2697;42.144;24.794;2023-06-22T06:35:37;161897.84;;;35.87;38.85
5350;BME280;2697;42.144;24.794;2023-06-22T06:38:03;161647.44;;;34.92;40.78
5350;BME280;2697;42.144;24.794;2023-06-22T06:40:28;161559.03;;;34.58;41.30
5350;BME280;2697;42.144;24.794;2023-06-22T06:42:54;161569.72;;;34.62;41.02
5350;BME280;2697;42.144;24.794;2023-06-22T06:45:22;161730.44;;;35.23;41.19
5350;BME280;2697;42.144;24.794;2023-06-22T06:47:49;161583.13;;;34.67;42.00
5350;BME280;2697;42.144;24.794;2023-06-22T06:50:15;161797.44;;;35.49;40.06
5350;BME280;2697;42.144;24.794;2023-06-22T06:52:41;161711.66;;;35.16;39.90
5350;BME280;2697;42.144;24.794;2023-06-22T06:55:08;161692.97;;;35.09;41.22
5350;BME280;2697;42.144;24.794;2023-06-22T06:57:37;161918.00;;;35.94;39.96
5350;BME280;2697;42.144;24.794;2023-06-22T07:00:04;161915.31;;;35.93;39.20
5350;BME280;2697;42.144;24.794;2023-06-22T07:02:37;162177.94;;;36.93;38.07
5350;BME280;2697;42.144;24.794;2023-06-22T07:05:02;162385.75;;;37.72;37.21
5350;BME280;2697;42.144;24.794;2023-06-22T07:07:29;162725.16;;;39.01;34.74
5350;BME280;2697;42.144;24.794;2023-06-22T07:09:55;162169.94;;;36.90;37.06
5350;BME280;2697;42.144;24.794;2023-06-22T07:12:20;162472.91;;;38.05;36.27
5350;BME280;2697;42.144;24.794;2023-06-22T07:14:46;162671.47;;;38.81;34.37
5350;BME280;2697;42.144;24.794;2023-06-22T07:17:11;162875.50;;;39.58;33.11
5350;BME280;2697;42.144;24.794;2023-06-22T07:19:37;162271.75;;;37.29;35.85
5350;BME280;2697;42.144;24.794;2023-06-22T07:22:02;162341.50;;;37.55;35.98
5350;BME280;2697;42.144;24.794;2023-06-22T07:24:28;162424.66;;;37.87;35.93
5350;BME280;2697;42.144;24.794;2023-06-22T07:26:53;162417.97;;;37.84;35.79
5350;BME280;2697;42.144;24.794;2023-06-22T07:29:22;162084.09;;;36.58;37.11
5350;BME280;2697;42.144;24.794;2023-06-22T07:31:48;162350.88;;;37.59;36.20
5350;BME280;2697;42.144;24.794;2023-06-22T07:34:16;162450.13;;;37.97;35.24
5350;BME280;2697;42.144;24.794;2023-06-22T07:36:41;162388.44;;;37.73;35.22
5350;BME280;2697;42.144;24.794;2023-06-22T07:39:07;162043.94;;;36.42;36.75
5350;BME280;2697;42.144;24.794;2023-06-22T07:41:32;161706.31;;;35.14;38.40
5350;BME280;2697;42.144;24.794;2023-06-22T07:43:57;161520.22;;;34.43;40.51
5350;BME280;2697;42.144;24.794;2023-06-22T07:46:24;161698.31;;;35.11;39.66
5350;BME280;2697;42.144;24.794;2023-06-22T07:48:50;161808.13;;;35.53;38.70
5350;BME280;2697;42.144;24.794;2023-06-22T07:51:15;162022.47;;;36.34;37.72
5350;BME280;2697;42.144;24.794;2023-06-22T07:53:42;162077.41;;;36.55;35.96
5350;BME280;2697;42.144;24.794;2023-06-22T07:56:10;162196.72;;;37.00;35.24
5350;BME280;2697;42.144;24.794;2023-06-22T07:58:36;162353.56;;;37.60;34.65
5350;BME280;2697;42.144;24.794;2023-06-22T08:01:01;161982.25;;;36.19;35.87
5350;BME280;2697;42.144;24.794;2023-06-22T08:03:28;161916.66;;;35.94;36.00
5350;BME280;2697;42.144;24.794;2023-06-22T08:05:53;162110.94;;;36.68;35.72
5350;BME280;2697;42.144;24.794;2023-06-22T08:08:18;162169.94;;;36.90;35.48
5350;BME280;2697;42.144;24.794;2023-06-22T08:10:44;162191.38;;;36.98;35.10
5350;BME280;2697;42.144;24.794;2023-06-22T08:13:09;162277.16;;;37.31;34.73
5350;BME280;2697;42.144;24.794;2023-06-22T08:15:35;162151.16;;;36.83;34.28
5350;BME280;2697;42.144;24.794;2023-06-22T08:18:00;162121.63;;;36.72;34.74
5350;BME280;2697;42.144;24.794;2023-06-22T08:20:26;162196.72;;;37.00;34.39
5350;BME280;2697;42.144;24.794;2023-06-22T08:22:53;161828.22;;;35.60;36.78
5350;BME280;2697;42.144;24.794;2023-06-22T08:25:20;161865.72;;;35.75;36.52
5350;BME280;2697;42.144;24.794;2023-06-22T08:27:46;161872.41;;;35.77;36.17
5350;BME280;2697;42.144;24.794;2023-06-22T08:30:13;161907.25;;;35.90;36.25
5350;BME280;2697;42.144;24.794;2023-06-22T08:32:38;161879.09;;;35.80;36.82
5350;BME280;2697;42.144;24.794;2023-06-22T08:35:04;161773.31;;;35.39;37.48
5350;BME280;2697;42.144;24.794;2023-06-22T08:37:32;161784.03;;;35.44;36.89
5350;BME280;2697;42.144;24.794;2023-06-22T08:40:01;161572.44;;;34.63;37.59
5350;BME280;2697;42.144;24.794;2023-06-22T08:42:29;161544.31;;;34.52;37.91
5350;BME280;2697;42.144;24.794;2023-06-22T08:44:55;161555.03;;;34.56;38.43
5350;BME280;2697;42.144;24.794;2023-06-22T08:47:20;161644.78;;;34.91;37.08
5350;BME280;2697;42.144;24.794;2023-06-22T08:49:46;161588.47;;;34.69;37.62
5350;BME280;2697;42.144;24.794;2023-06-22T08:52:12;161311.44;;;33.64;38.94
5350;BME280;2697;42.144;24.794;2023-06-22T08:54:38;161375.72;;;33.88;38.27
5350;BME280;2697;42.144;24.794;2023-06-22T08:57:03;161433.22;;;34.10;37.45
5350;BME280;2697;42.144;24.794;2023-06-22T08:59:29;161367.59;;;33.85;38.66
5350;BME280;2697;42.144;24.794;2023-06-22T09:01:54;161302.09;;;33.60;38.76
5350;BME280;2697;42.144;24.794;2023-06-22T09:04:20;161271.28;;;33.49;38.23
5350;BME280;2697;42.144;24.794;2023-06-22T09:06:47;161232.50;;;33.34;37.97
5350;BME280;2697;42.144;24.794;2023-06-22T09:09:13;161154.94;;;33.04;38.42
5350;BME280;2697;42.144;24.794;2023-06-22T09:11:39;161231.16;;;33.33;37.92
5350;BME280;2697;42.144;24.794;2023-06-22T09:14:05;161176.28;;;33.12;37.49
5350;BME280;2697;42.144;24.794;2023-06-22T09:16:30;161093.34;;;32.81;38.17
5350;BME280;2697;42.144;24.794;2023-06-22T09:18:56;161187.00;;;33.16;38.11
5350;BME280;2697;42.144;24.794;2023-06-22T09:21:21;161331.50;;;33.71;37.26
5350;BME280;2697;42.144;24.794;2023-06-22T09:23:46;161389.06;;;33.93;37.26
5350;BME280;2697;42.144;24.794;2023-06-22T09:26:16;161261.94;;;33.45;37.94
5350;BME280;2697;42.144;24.794;2023-06-22T09:28:41;161104.09;;;32.85;38.19
5350;BME280;2697;42.144;24.794;2023-06-22T09:31:07;161283.34;;;33.53;38.02
5350;BME280;2697;42.144;24.794;2023-06-22T09:33:32;161179.00;;;33.13;37.75
5350;BME280;2697;42.144;24.794;2023-06-22T09:35:58;161253.94;;;33.42;38.32
5350;BME280;2697;42.144;24.794;2023-06-22T09:38:23;161330.19;;;33.71;38.44
5350;BME280;2697;42.144;24.794;2023-06-22T09:40:48;161429.22;;;34.09;37.86
5350;BME280;2697;42.144;24.794;2023-06-22T09:43:14;161524.28;;;34.45;37.83
5350;BME280;2697;42.144;24.794;2023-06-22T09:45:39;161706.31;;;35.14;35.04
5350;BME280;2697;42.144;24.794;2023-06-22T09:48:05;161676.88;;;35.03;35.36
5350;BME280;2697;42.144;24.794;2023-06-22T09:50:30;161727.75;;;35.22;34.46
5350;BME280;2697;42.144;24.794;2023-06-22T09:52:56;161567.06;;;34.61;35.29
5350;BME280;2697;42.144;24.794;2023-06-22T09:55:22;161551.03;;;34.55;34.79
5350;BME280;2697;42.144;24.794;2023-06-22T09:57:47;161557.72;;;34.57;35.59
5350;BME280;2697;42.144;24.794;2023-06-22T10:00:13;161629.97;;;34.85;34.09
5350;BME280;2697;42.144;24.794;2023-06-22T10:02:41;161695.63;;;35.10;33.99
5350;BME280;2697;42.144;24.794;2023-06-22T10:05:06;161674.22;;;35.02;34.06
5350;BME280;2697;42.144;24.794;2023-06-22T10:07:33;161485.41;;;34.30;35.93
5350;BME280;2697;42.144;24.794;2023-06-22T10:09:58;161592.47;;;34.71;35.38
5350;BME280;2697;42.144;24.794;2023-06-22T10:12:23;161567.06;;;34.61;35.03
5350;BME280;2697;42.144;24.794;2023-06-22T10:14:49;161608.56;;;34.77;34.22
5350;BME280;2697;42.144;24.794;2023-06-22T10:17:14;161585.81;;;34.68;34.68
5350;BME280;2697;42.144;24.794;2023-06-22T10:19:39;161580.47;;;34.66;34.91
5350;BME280;2697;42.144;24.794;2023-06-22T10:22:06;161664.81;;;34.98;34.05
5350;BME280;2697;42.144;24.794;2023-06-22T10:24:32;161500.13;;;34.36;34.92
5350;BME280;2697;42.144;24.794;2023-06-22T10:26:57;161520.22;;;34.43;34.58
5350;BME280;2697;42.144;24.794;2023-06-22T10:29:23;161532.28;;;34.48;34.70
5350;BME280;2697;42.144;24.794;2023-06-22T10:31:48;161540.28;;;34.51;35.68
5350;BME280;2697;42.144;24.794;2023-06-22T10:34:13;161741.09;;;35.27;33.90
5350;BME280;2697;42.144;24.794;2023-06-22T10:36:39;161958.16;;;36.10;33.19
5350;BME280;2697;42.144;24.794;2023-06-22T10:39:04;161723.75;;;35.21;35.72
5350;BME280;2697;42.144;24.794;2023-06-22T10:41:31;161750.50;;;35.31;34.21
5350;BME280;2697;42.144;24.794;2023-06-22T10:43:56;161717.06;;;35.18;32.59
5350;BME280;2697;42.144;24.794;2023-06-22T10:46:24;161366.28;;;33.85;34.42
5350;BME280;2697;42.144;24.794;2023-06-22T10:48:50;161360.94;;;33.83;34.14
5350;BME280;2697;42.144;24.794;2023-06-22T10:51:16;161355.59;;;33.81;34.12
5350;BME280;2697;42.144;24.794;2023-06-22T10:53:41;161542.97;;;34.52;34.45
5350;BME280;2697;42.144;24.794;2023-06-22T10:56:08;161545.69;;;34.53;33.27
5350;BME280;2697;42.144;24.794;2023-06-22T10:58:33;161763.88;;;35.36;31.26
5350;BME280;2697;42.144;24.794;2023-06-22T11:00:59;161820.19;;;35.57;32.51
5350;BME280;2697;42.144;24.794;2023-06-22T11:03:24;161818.84;;;35.57;32.63
5350;BME280;2697;42.144;24.794;2023-06-22T11:05:49;162069.41;;;36.52;30.08
5350;BME280;2697;42.144;24.794;2023-06-22T11:08:15;162244.97;;;37.19;29.31
5350;BME280;2697;42.144;24.794;2023-06-22T11:10:40;162365.66;;;37.64;28.51
5350;BME280;2697;42.144;24.794;2023-06-22T11:13:06;162365.66;;;37.64;28.59
5350;BME280;2697;42.144;24.794;2023-06-22T11:15:34;162346.88;;;37.57;28.98
5350;BME280;2697;42.144;24.794;2023-06-22T11:18:00;162199.41;;;37.01;29.20
5350;BME280;2697;42.144;24.794;2023-06-22T11:20:25;162187.38;;;36.97;30.85
5350;BME280;2697;42.144;24.794;2023-06-22T11:22:50;161875.09;;;35.78;33.47
5350;BME280;2697;42.144;24.794;2023-06-22T11:25:16;161872.41;;;35.77;33.69
5350;BME280;2697;42.144;24.794;2023-06-22T11:27:41;161813.47;;;35.55;32.65
5350;BME280;2697;42.144;24.794;2023-06-22T11:30:07;161644.78;;;34.91;32.70
5350;BME280;2697;42.144;24.794;2023-06-22T11:32:33;161583.13;;;34.67;34.04
5350;BME280;2697;42.144;24.794;2023-06-22T11:34:59;161484.06;;;34.29;35.86
5350;BME280;2697;42.144;24.794;2023-06-22T11:37:24;161484.06;;;34.29;35.27
5350;BME280;2697;42.144;24.794;2023-06-22T11:39:49;161465.31;;;34.22;35.01
5350;BME280;2697;42.144;24.794;2023-06-22T11:42:15;161540.28;;;34.51;34.38
5350;BME280;2697;42.144;24.794;2023-06-22T11:44:41;161505.47;;;34.38;32.69
5350;BME280;2697;42.144;24.794;2023-06-22T11:47:07;161488.06;;;34.31;33.23
5350;BME280;2697;42.144;24.794;2023-06-22T11:49:32;161573.78;;;34.64;33.65
5350;BME280;2697;42.144;24.794;2023-06-22T11:51:58;161650.13;;;34.93;33.57
5350;BME280;2697;42.144;24.794;2023-06-22T11:54:23;161540.28;;;34.51;33.80
5350;BME280;2697;42.144;24.794;2023-06-22T11:56:49;161561.72;;;34.59;34.63
5350;BME280;2697;42.144;24.794;2023-06-22T11:59:14;161532.28;;;34.48;34.33
5350;BME280;2697;42.144;24.794;2023-06-22T12:01:39;161628.66;;;34.84;34.17
5350;BME280;2697;42.144;24.794;2023-06-22T12:04:05;161640.72;;;34.89;34.48
5350;BME280;2697;42.144;24.794;2023-06-22T12:06:35;161476.06;;;34.26;35.02
5350;BME280;2697;42.144;24.794;2023-06-22T12:09:03;161451.97;;;34.17;34.67
5350;BME280;2697;42.144;24.794;2023-06-22T12:11:29;161347.53;;;33.78;36.19
5350;BME280;2697;42.144;24.794;2023-06-22T12:13:55;161331.50;;;33.71;35.57
5350;BME280;2697;42.144;24.794;2023-06-22T12:16:20;161636.66;;;34.88;34.21
5350;BME280;2697;42.144;24.794;2023-06-22T12:18:47;161730.44;;;35.23;33.88
5350;BME280;2697;42.144;24.794;2023-06-22T12:21:12;161830.88;;;35.61;32.71
5350;BME280;2697;42.144;24.794;2023-06-22T12:23:38;162064.06;;;36.50;31.72
5350;BME280;2697;42.144;24.794;2023-06-22T12:26:03;162212.81;;;37.06;30.00
5350;BME280;2697;42.144;24.794;2023-06-22T12:28:29;162352.22;;;37.59;31.16
5350;BME280;2697;42.144;24.794;2023-06-22T12:30:54;162525.25;;;38.25;30.83
5350;BME280;2697;42.144;24.794;2023-06-22T12:33:19;162487.69;;;38.11;30.45
5350;BME280;2697;42.144;24.794;2023-06-22T12:35:45;162593.66;;;38.51;30.43
5350;BME280;2697;42.144;24.794;2023-06-22T12:38:11;162357.63;;;37.61;31.81
5350;BME280;2697;42.144;24.794;2023-06-22T12:40:36;162436.75;;;37.91;30.74
5350;BME280;2697;42.144;24.794;2023-06-22T12:43:02;162057.31;;;36.47;32.12
5350;BME280;2697;42.144;24.794;2023-06-22T12:45:27;161738.44;;;35.26;33.76
5350;BME280;2697;42.144;24.794;2023-06-22T12:47:56;161664.81;;;34.98;34.25
5350;BME280;2697;42.144;24.794;2023-06-22T12:50:22;161762.53;;;35.35;33.93
5350;BME280;2697;42.144;24.794;2023-06-22T12:52:47;161666.16;;;34.99;34.11
5350;BME280;2697;42.144;24.794;2023-06-22T12:55:13;161593.81;;;34.71;35.02
5350;BME280;2697;42.144;24.794;2023-06-22T12:57:38;161498.81;;;34.35;35.17
5350;BME280;2697;42.144;24.794;2023-06-22T13:00:04;161678.22;;;35.03;34.20